Terminal Aerodrome Forecast
Issued by NWS

Home | Current Version | Previous Version | Text Only | Print | Product List | Glossary On
Versions: 1 2 3 4 5 6 7 8 9 10 11 12
000
FTUS43 KPAH 151722
TAFCGI
TAF
KCGI 151722Z 1518/1618 25008G15KT P6SM SCT050
      TEMPO 1520/1524 BKN050
     FM160000 20005KT P6SM SKC
     FM161400 20009G15KT P6SM SKC=

USA.gov is the U.S. government's official web portal to all federal, state and local government web resources and services.